sensor_id;sensor_type;location;lat;lon;timestamp;P1;durP1;ratioP1;P2;durP2;ratioP2
67585;SDS011;55785;47.946;20.540;2024-03-08T00:01:03;8.07;;;4.07;;
67585;SDS011;55785;47.946;20.540;2024-03-08T00:03:29;5.50;;;3.40;;
67585;SDS011;55785;47.946;20.540;2024-03-08T00:05:54;6.70;;;3.23;;
67585;SDS011;55785;47.946;20.540;2024-03-08T00:08:20;7.43;;;3.63;;
67585;SDS011;55785;47.946;20.540;2024-03-08T00:10:45;6.80;;;4.37;;
67585;SDS011;55785;47.946;20.540;2024-03-08T00:13:10;6.93;;;3.77;;
67585;SDS011;55785;47.946;20.540;2024-03-08T00:15:36;10.03;;;4.23;;
67585;SDS011;55785;47.946;20.540;2024-03-08T00:18:01;6.40;;;3.77;;
67585;SDS011;55785;47.946;20.540;2024-03-08T00:20:26;7.70;;;3.83;;
67585;SDS011;55785;47.946;20.540;2024-03-08T00:22:52;5.90;;;3.73;;
67585;SDS011;55785;47.946;20.540;2024-03-08T00:25:17;5.27;;;3.37;;
67585;SDS011;55785;47.946;20.540;2024-03-08T00:27:42;6.87;;;3.70;;
67585;SDS011;55785;47.946;20.540;2024-03-08T00:30:08;7.70;;;4.17;;
67585;SDS011;55785;47.946;20.540;2024-03-08T00:32:33;15.03;;;3.30;;
67585;SDS011;55785;47.946;20.540;2024-03-08T00:35:00;7.80;;;3.37;;
67585;SDS011;55785;47.946;20.540;2024-03-08T00:37:25;7.37;;;3.90;;
67585;SDS011;55785;47.946;20.540;2024-03-08T00:39:51;8.87;;;4.37;;
67585;SDS011;55785;47.946;20.540;2024-03-08T00:42:17;5.57;;;3.20;;
67585;SDS011;55785;47.946;20.540;2024-03-08T00:44:43;6.20;;;3.77;;
67585;SDS011;55785;47.946;20.540;2024-03-08T00:47:08;7.80;;;3.67;;
67585;SDS011;55785;47.946;20.540;2024-03-08T00:49:34;8.53;;;4.07;;
67585;SDS011;55785;47.946;20.540;2024-03-08T00:51:59;7.97;;;4.03;;
67585;SDS011;55785;47.946;20.540;2024-03-08T00:54:24;6.70;;;4.03;;
67585;SDS011;55785;47.946;20.540;2024-03-08T00:56:50;6.10;;;3.53;;
67585;SDS011;55785;47.946;20.540;2024-03-08T00:59:15;5.90;;;3.67;;
67585;SDS011;55785;47.946;20.540;2024-03-08T01:01:40;9.03;;;3.73;;
67585;SDS011;55785;47.946;20.540;2024-03-08T01:04:06;7.27;;;3.63;;
67585;SDS011;55785;47.946;20.540;2024-03-08T01:06:31;7.30;;;3.73;;
67585;SDS011;55785;47.946;20.540;2024-03-08T01:08:57;6.20;;;4.17;;
67585;SDS011;55785;47.946;20.540;2024-03-08T01:11:22;6.87;;;2.93;;
67585;SDS011;55785;47.946;20.540;2024-03-08T01:13:47;5.80;;;3.40;;
67585;SDS011;55785;47.946;20.540;2024-03-08T01:16:13;5.83;;;3.47;;
67585;SDS011;55785;47.946;20.540;2024-03-08T01:18:38;7.30;;;3.10;;
67585;SDS011;55785;47.946;20.540;2024-03-08T01:21:03;7.10;;;3.43;;
67585;SDS011;55785;47.946;20.540;2024-03-08T01:23:29;6.07;;;3.80;;
67585;SDS011;55785;47.946;20.540;2024-03-08T01:25:55;5.67;;;3.90;;
67585;SDS011;55785;47.946;20.540;2024-03-08T01:28:20;8.23;;;3.80;;
67585;SDS011;55785;47.946;20.540;2024-03-08T01:30:45;6.40;;;3.57;;
67585;SDS011;55785;47.946;20.540;2024-03-08T01:33:11;9.80;;;3.87;;
67585;SDS011;55785;47.946;20.540;2024-03-08T01:35:36;6.70;;;2.93;;
67585;SDS011;55785;47.946;20.540;2024-03-08T01:38:01;4.57;;;2.70;;
67585;SDS011;55785;47.946;20.540;2024-03-08T01:40:27;11.83;;;4.13;;
67585;SDS011;55785;47.946;20.540;2024-03-08T01:42:52;7.43;;;3.70;;
67585;SDS011;55785;47.946;20.540;2024-03-08T01:45:18;5.93;;;3.37;;
67585;SDS011;55785;47.946;20.540;2024-03-08T01:47:43;11.13;;;4.17;;
67585;SDS011;55785;47.946;20.540;2024-03-08T01:50:08;7.40;;;4.00;;
67585;SDS011;55785;47.946;20.540;2024-03-08T01:52:34;7.27;;;3.63;;
67585;SDS011;55785;47.946;20.540;2024-03-08T01:55:00;6.37;;;3.67;;
67585;SDS011;55785;47.946;20.540;2024-03-08T01:57:28;8.43;;;3.40;;
67585;SDS011;55785;47.946;20.540;2024-03-08T01:59:54;9.03;;;3.77;;
67585;SDS011;55785;47.946;20.540;2024-03-08T02:02:21;6.83;;;4.23;;
67585;SDS011;55785;47.946;20.540;2024-03-08T02:04:46;6.23;;;3.87;;
67585;SDS011;55785;47.946;20.540;2024-03-08T02:07:12;8.70;;;3.77;;
67585;SDS011;55785;47.946;20.540;2024-03-08T02:09:37;6.67;;;3.70;;
67585;SDS011;55785;47.946;20.540;2024-03-08T02:12:03;5.87;;;3.30;;
67585;SDS011;55785;47.946;20.540;2024-03-08T02:14:28;10.77;;;4.43;;
67585;SDS011;55785;47.946;20.540;2024-03-08T02:16:54;7.07;;;3.97;;
67585;SDS011;55785;47.946;20.540;2024-03-08T02:19:19;8.20;;;3.80;;
67585;SDS011;55785;47.946;20.540;2024-03-08T02:21:44;8.73;;;3.73;;
67585;SDS011;55785;47.946;20.540;2024-03-08T02:24:10;5.83;;;3.00;;
67585;SDS011;55785;47.946;20.540;2024-03-08T02:26:35;5.30;;;2.80;;
67585;SDS011;55785;47.946;20.540;2024-03-08T02:29:01;6.30;;;3.30;;
67585;SDS011;55785;47.946;20.540;2024-03-08T02:31:26;8.13;;;3.80;;
67585;SDS011;55785;47.946;20.540;2024-03-08T02:33:52;9.67;;;4.47;;
67585;SDS011;55785;47.946;20.540;2024-03-08T02:36:17;6.43;;;3.17;;
67585;SDS011;55785;47.946;20.540;2024-03-08T02:38:43;5.20;;;3.20;;
67585;SDS011;55785;47.946;20.540;2024-03-08T02:41:08;8.60;;;4.23;;
67585;SDS011;55785;47.946;20.540;2024-03-08T02:43:33;7.00;;;3.23;;
67585;SDS011;55785;47.946;20.540;2024-03-08T02:45:59;5.30;;;3.37;;
67585;SDS011;55785;47.946;20.540;2024-03-08T02:48:24;5.03;;;2.97;;
67585;SDS011;55785;47.946;20.540;2024-03-08T02:50:49;7.63;;;3.20;;
67585;SDS011;55785;47.946;20.540;2024-03-08T02:53:15;10.00;;;3.53;;
67585;SDS011;55785;47.946;20.540;2024-03-08T02:55:40;7.37;;;4.30;;
67585;SDS011;55785;47.946;20.540;2024-03-08T02:58:06;6.70;;;3.43;;
67585;SDS011;55785;47.946;20.540;2024-03-08T03:00:32;11.10;;;3.23;;
67585;SDS011;55785;47.946;20.540;2024-03-08T03:02:57;6.63;;;2.93;;
67585;SDS011;55785;47.946;20.540;2024-03-08T03:05:23;6.27;;;4.23;;
67585;SDS011;55785;47.946;20.540;2024-03-08T03:07:49;9.23;;;3.77;;
67585;SDS011;55785;47.946;20.540;2024-03-08T03:10:18;7.50;;;4.07;;
67585;SDS011;55785;47.946;20.540;2024-03-08T03:12:44;8.30;;;3.90;;
67585;SDS011;55785;47.946;20.540;2024-03-08T03:15:11;9.10;;;4.30;;
67585;SDS011;55785;47.946;20.540;2024-03-08T03:17:37;6.73;;;3.50;;
67585;SDS011;55785;47.946;20.540;2024-03-08T03:20:04;5.30;;;3.10;;
67585;SDS011;55785;47.946;20.540;2024-03-08T03:22:31;8.27;;;3.90;;
67585;SDS011;55785;47.946;20.540;2024-03-08T03:24:56;5.53;;;3.10;;
67585;SDS011;55785;47.946;20.540;2024-03-08T03:27:21;13.70;;;3.33;;
67585;SDS011;55785;47.946;20.540;2024-03-08T03:29:47;11.33;;;3.30;;
67585;SDS011;55785;47.946;20.540;2024-03-08T03:32:12;6.73;;;3.23;;
67585;SDS011;55785;47.946;20.540;2024-03-08T03:34:38;7.13;;;3.90;;
67585;SDS011;55785;47.946;20.540;2024-03-08T03:37:04;9.20;;;3.50;;
67585;SDS011;55785;47.946;20.540;2024-03-08T03:39:30;6.67;;;3.57;;
67585;SDS011;55785;47.946;20.540;2024-03-08T03:41:56;8.50;;;3.63;;
67585;SDS011;55785;47.946;20.540;2024-03-08T03:44:21;6.63;;;3.60;;
67585;SDS011;55785;47.946;20.540;2024-03-08T03:46:46;6.47;;;3.30;;
67585;SDS011;55785;47.946;20.540;2024-03-08T03:49:12;6.33;;;3.60;;
67585;SDS011;55785;47.946;20.540;2024-03-08T03:51:37;4.67;;;3.07;;
67585;SDS011;55785;47.946;20.540;2024-03-08T03:54:03;6.77;;;4.00;;
67585;SDS011;55785;47.946;20.540;2024-03-08T03:56:29;7.00;;;4.37;;
67585;SDS011;55785;47.946;20.540;2024-03-08T03:58:54;7.63;;;3.80;;
67585;SDS011;55785;47.946;20.540;2024-03-08T04:01:20;6.93;;;3.47;;
67585;SDS011;55785;47.946;20.540;2024-03-08T04:03:45;6.57;;;3.30;;
67585;SDS011;55785;47.946;20.540;2024-03-08T04:06:10;5.70;;;3.37;;
67585;SDS011;55785;47.946;20.540;2024-03-08T04:08:36;6.93;;;3.10;;
67585;SDS011;55785;47.946;20.540;2024-03-08T04:11:01;8.27;;;3.37;;
67585;SDS011;55785;47.946;20.540;2024-03-08T04:13:26;6.00;;;3.20;;
67585;SDS011;55785;47.946;20.540;2024-03-08T04:15:52;11.43;;;3.93;;
67585;SDS011;55785;47.946;20.540;2024-03-08T04:18:17;5.67;;;3.77;;
67585;SDS011;55785;47.946;20.540;2024-03-08T04:20:43;6.27;;;3.77;;
67585;SDS011;55785;47.946;20.540;2024-03-08T04:23:08;8.93;;;3.83;;
67585;SDS011;55785;47.946;20.540;2024-03-08T04:25:33;6.77;;;3.40;;
67585;SDS011;55785;47.946;20.540;2024-03-08T04:27:59;5.47;;;3.70;;
67585;SDS011;55785;47.946;20.540;2024-03-08T04:30:24;5.30;;;2.73;;
67585;SDS011;55785;47.946;20.540;2024-03-08T04:32:50;5.80;;;3.27;;
67585;SDS011;55785;47.946;20.540;2024-03-08T04:35:15;3.60;;;2.83;;
67585;SDS011;55785;47.946;20.540;2024-03-08T04:37:41;8.57;;;3.50;;
67585;SDS011;55785;47.946;20.540;2024-03-08T04:40:08;6.97;;;3.97;;
67585;SDS011;55785;47.946;20.540;2024-03-08T04:42:33;6.93;;;3.77;;
67585;SDS011;55785;47.946;20.540;2024-03-08T04:44:59;7.23;;;4.23;;
67585;SDS011;55785;47.946;20.540;2024-03-08T04:47:25;10.40;;;5.43;;
67585;SDS011;55785;47.946;20.540;2024-03-08T04:49:50;8.73;;;5.67;;
67585;SDS011;55785;47.946;20.540;2024-03-08T04:52:16;10.30;;;5.80;;
67585;SDS011;55785;47.946;20.540;2024-03-08T04:54:42;5.60;;;4.00;;
67585;SDS011;55785;47.946;20.540;2024-03-08T04:57:08;8.07;;;4.87;;
67585;SDS011;55785;47.946;20.540;2024-03-08T04:59:33;11.13;;;4.20;;
67585;SDS011;55785;47.946;20.540;2024-03-08T05:01:59;5.73;;;3.30;;
67585;SDS011;55785;47.946;20.540;2024-03-08T05:04:24;4.83;;;3.20;;
67585;SDS011;55785;47.946;20.540;2024-03-08T05:06:49;6.07;;;3.63;;
67585;SDS011;55785;47.946;20.540;2024-03-08T05:09:15;6.73;;;3.70;;
67585;SDS011;55785;47.946;20.540;2024-03-08T05:11:40;8.97;;;4.30;;
67585;SDS011;55785;47.946;20.540;2024-03-08T05:14:06;4.47;;;2.67;;
67585;SDS011;55785;47.946;20.540;2024-03-08T05:16:32;6.03;;;3.40;;
67585;SDS011;55785;47.946;20.540;2024-03-08T05:18:57;6.43;;;3.27;;
67585;SDS011;55785;47.946;20.540;2024-03-08T05:21:22;6.13;;;3.30;;
67585;SDS011;55785;47.946;20.540;2024-03-08T05:23:48;5.30;;;3.73;;
67585;SDS011;55785;47.946;20.540;2024-03-08T05:26:13;4.70;;;3.20;;
67585;SDS011;55785;47.946;20.540;2024-03-08T05:28:38;6.33;;;3.87;;
67585;SDS011;55785;47.946;20.540;2024-03-08T05:31:04;9.37;;;3.73;;
67585;SDS011;55785;47.946;20.540;2024-03-08T05:33:29;5.23;;;3.00;;
67585;SDS011;55785;47.946;20.540;2024-03-08T05:35:54;7.03;;;3.90;;
67585;SDS011;55785;47.946;20.540;2024-03-08T05:38:20;7.93;;;4.57;;
67585;SDS011;55785;47.946;20.540;2024-03-08T05:40:45;6.70;;;3.60;;
67585;SDS011;55785;47.946;20.540;2024-03-08T05:43:10;4.27;;;2.80;;
67585;SDS011;55785;47.946;20.540;2024-03-08T05:45:36;5.67;;;3.23;;
67585;SDS011;55785;47.946;20.540;2024-03-08T05:48:01;6.63;;;3.27;;
67585;SDS011;55785;47.946;20.540;2024-03-08T05:50:27;7.63;;;3.37;;
67585;SDS011;55785;47.946;20.540;2024-03-08T05:52:52;5.03;;;2.80;;
67585;SDS011;55785;47.946;20.540;2024-03-08T05:55:17;7.73;;;3.47;;
67585;SDS011;55785;47.946;20.540;2024-03-08T05:57:43;4.10;;;3.00;;
67585;SDS011;55785;47.946;20.540;2024-03-08T06:00:09;7.10;;;3.10;;
67585;SDS011;55785;47.946;20.540;2024-03-08T06:02:34;3.97;;;3.13;;
67585;SDS011;55785;47.946;20.540;2024-03-08T06:05:00;8.67;;;3.03;;
67585;SDS011;55785;47.946;20.540;2024-03-08T06:07:25;7.73;;;3.77;;
67585;SDS011;55785;47.946;20.540;2024-03-08T06:09:50;7.40;;;3.20;;
67585;SDS011;55785;47.946;20.540;2024-03-08T06:12:16;6.03;;;2.90;;
67585;SDS011;55785;47.946;20.540;2024-03-08T06:14:41;5.63;;;3.53;;
67585;SDS011;55785;47.946;20.540;2024-03-08T06:17:07;6.47;;;3.20;;
67585;SDS011;55785;47.946;20.540;2024-03-08T06:19:32;7.43;;;3.23;;
67585;SDS011;55785;47.946;20.540;2024-03-08T06:21:57;6.77;;;3.80;;
67585;SDS011;55785;47.946;20.540;2024-03-08T06:24:23;6.80;;;3.33;;
67585;SDS011;55785;47.946;20.540;2024-03-08T06:26:48;5.90;;;3.77;;
67585;SDS011;55785;47.946;20.540;2024-03-08T06:29:13;5.37;;;3.30;;
67585;SDS011;55785;47.946;20.540;2024-03-08T06:31:39;7.50;;;3.47;;
67585;SDS011;55785;47.946;20.540;2024-03-08T06:34:04;7.70;;;4.43;;
67585;SDS011;55785;47.946;20.540;2024-03-08T06:36:30;6.73;;;3.80;;
67585;SDS011;55785;47.946;20.540;2024-03-08T06:38:55;8.50;;;4.83;;
67585;SDS011;55785;47.946;20.540;2024-03-08T06:41:20;7.00;;;3.73;;
67585;SDS011;55785;47.946;20.540;2024-03-08T06:43:46;5.97;;;3.33;;
67585;SDS011;55785;47.946;20.540;2024-03-08T06:46:12;6.13;;;3.43;;
67585;SDS011;55785;47.946;20.540;2024-03-08T06:48:40;6.70;;;3.27;;
67585;SDS011;55785;47.946;20.540;2024-03-08T06:51:05;8.53;;;4.67;;
67585;SDS011;55785;47.946;20.540;2024-03-08T06:53:31;5.77;;;3.83;;
67585;SDS011;55785;47.946;20.540;2024-03-08T06:55:57;8.00;;;4.07;;
67585;SDS011;55785;47.946;20.540;2024-03-08T06:58:25;8.33;;;3.90;;
67585;SDS011;55785;47.946;20.540;2024-03-08T07:00:51;9.03;;;3.70;;
67585;SDS011;55785;47.946;20.540;2024-03-08T07:03:16;7.37;;;4.13;;
67585;SDS011;55785;47.946;20.540;2024-03-08T07:05:41;9.37;;;4.73;;
67585;SDS011;55785;47.946;20.540;2024-03-08T07:08:07;7.37;;;4.03;;
67585;SDS011;55785;47.946;20.540;2024-03-08T07:10:32;8.00;;;4.50;;
67585;SDS011;55785;47.946;20.540;2024-03-08T07:12:57;7.17;;;3.77;;
67585;SDS011;55785;47.946;20.540;2024-03-08T07:15:23;9.50;;;5.47;;
67585;SDS011;55785;47.946;20.540;2024-03-08T07:17:48;15.53;;;6.23;;
67585;SDS011;55785;47.946;20.540;2024-03-08T07:20:14;15.43;;;5.70;;
67585;SDS011;55785;47.946;20.540;2024-03-08T07:22:40;9.97;;;4.50;;
67585;SDS011;55785;47.946;20.540;2024-03-08T07:25:05;7.90;;;4.17;;
67585;SDS011;55785;47.946;20.540;2024-03-08T07:27:31;10.93;;;5.40;;
67585;SDS011;55785;47.946;20.540;2024-03-08T07:29:56;10.47;;;5.57;;
67585;SDS011;55785;47.946;20.540;2024-03-08T07:32:21;8.10;;;4.53;;
67585;SDS011;55785;47.946;20.540;2024-03-08T07:34:47;7.50;;;4.17;;
67585;SDS011;55785;47.946;20.540;2024-03-08T07:37:13;9.60;;;5.13;;
67585;SDS011;55785;47.946;20.540;2024-03-08T07:39:39;10.83;;;4.23;;
67585;SDS011;55785;47.946;20.540;2024-03-08T07:42:04;6.73;;;3.60;;
67585;SDS011;55785;47.946;20.540;2024-03-08T07:44:30;8.93;;;4.50;;
67585;SDS011;55785;47.946;20.540;2024-03-08T07:46:55;10.83;;;4.37;;
67585;SDS011;55785;47.946;20.540;2024-03-08T07:49:20;10.87;;;4.33;;
67585;SDS011;55785;47.946;20.540;2024-03-08T07:51:46;9.33;;;5.23;;
67585;SDS011;55785;47.946;20.540;2024-03-08T07:54:11;8.00;;;4.53;;
67585;SDS011;55785;47.946;20.540;2024-03-08T07:56:36;9.27;;;5.30;;
67585;SDS011;55785;47.946;20.540;2024-03-08T07:59:02;7.03;;;3.80;;
67585;SDS011;55785;47.946;20.540;2024-03-08T08:01:28;6.60;;;4.13;;
67585;SDS011;55785;47.946;20.540;2024-03-08T08:03:53;7.37;;;4.23;;
67585;SDS011;55785;47.946;20.540;2024-03-08T08:06:18;6.90;;;4.57;;
67585;SDS011;55785;47.946;20.540;2024-03-08T08:08:44;10.23;;;5.13;;
67585;SDS011;55785;47.946;20.540;2024-03-08T08:11:09;11.63;;;5.40;;
67585;SDS011;55785;47.946;20.540;2024-03-08T08:13:35;8.50;;;3.80;;
67585;SDS011;55785;47.946;20.540;2024-03-08T08:16:01;6.72;;;4.15;;
67585;SDS011;55785;47.946;20.540;2024-03-08T08:18:26;9.73;;;4.60;;
67585;SDS011;55785;47.946;20.540;2024-03-08T08:20:51;5.97;;;3.08;;
67585;SDS011;55785;47.946;20.540;2024-03-08T08:23:17;5.60;;;3.43;;
67585;SDS011;55785;47.946;20.540;2024-03-08T08:25:42;8.47;;;3.40;;
67585;SDS011;55785;47.946;20.540;2024-03-08T08:28:07;8.40;;;4.43;;
67585;SDS011;55785;47.946;20.540;2024-03-08T08:30:33;8.77;;;4.13;;
67585;SDS011;55785;47.946;20.540;2024-03-08T08:32:58;7.40;;;3.63;;
67585;SDS011;55785;47.946;20.540;2024-03-08T08:35:24;6.60;;;3.70;;
67585;SDS011;55785;47.946;20.540;2024-03-08T08:37:49;7.17;;;4.13;;
67585;SDS011;55785;47.946;20.540;2024-03-08T08:40:15;6.53;;;3.13;;
67585;SDS011;55785;47.946;20.540;2024-03-08T08:42:40;11.00;;;4.50;;
67585;SDS011;55785;47.946;20.540;2024-03-08T08:45:06;8.53;;;4.37;;
67585;SDS011;55785;47.946;20.540;2024-03-08T08:47:32;9.60;;;4.20;;
67585;SDS011;55785;47.946;20.540;2024-03-08T08:49:57;7.57;;;4.00;;
67585;SDS011;55785;47.946;20.540;2024-03-08T08:52:22;9.27;;;3.47;;
67585;SDS011;55785;47.946;20.540;2024-03-08T08:54:48;6.07;;;3.10;;
67585;SDS011;55785;47.946;20.540;2024-03-08T08:57:13;10.43;;;3.77;;
67585;SDS011;55785;47.946;20.540;2024-03-08T08:59:38;11.97;;;4.23;;
67585;SDS011;55785;47.946;20.540;2024-03-08T09:02:04;8.80;;;4.23;;
67585;SDS011;55785;47.946;20.540;2024-03-08T09:04:29;9.83;;;4.07;;
67585;SDS011;55785;47.946;20.540;2024-03-08T09:06:55;8.03;;;3.93;;
67585;SDS011;55785;47.946;20.540;2024-03-08T09:09:20;7.57;;;4.00;;
67585;SDS011;55785;47.946;20.540;2024-03-08T09:11:45;5.07;;;3.57;;
67585;SDS011;55785;47.946;20.540;2024-03-08T09:14:11;7.20;;;3.73;;
67585;SDS011;55785;47.946;20.540;2024-03-08T09:16:36;7.00;;;3.47;;
67585;SDS011;55785;47.946;20.540;2024-03-08T09:19:02;6.77;;;4.10;;
67585;SDS011;55785;47.946;20.540;2024-03-08T09:21:27;5.87;;;3.70;;
67585;SDS011;55785;47.946;20.540;2024-03-08T09:23:52;9.00;;;3.33;;
67585;SDS011;55785;47.946;20.540;2024-03-08T09:26:18;6.03;;;4.03;;
67585;SDS011;55785;47.946;20.540;2024-03-08T09:28:44;4.67;;;3.07;;
67585;SDS011;55785;47.946;20.540;2024-03-08T09:31:09;5.77;;;3.27;;
67585;SDS011;55785;47.946;20.540;2024-03-08T09:33:34;7.00;;;3.83;;
67585;SDS011;55785;47.946;20.540;2024-03-08T09:36:00;8.20;;;3.77;;
67585;SDS011;55785;47.946;20.540;2024-03-08T09:38:25;11.33;;;4.30;;
67585;SDS011;55785;47.946;20.540;2024-03-08T09:40:51;6.10;;;3.47;;
67585;SDS011;55785;47.946;20.540;2024-03-08T09:43:16;6.67;;;3.77;;
67585;SDS011;55785;47.946;20.540;2024-03-08T09:45:42;8.53;;;3.87;;
67585;SDS011;55785;47.946;20.540;2024-03-08T09:48:10;10.20;;;3.73;;
67585;SDS011;55785;47.946;20.540;2024-03-08T09:50:36;5.27;;;3.47;;
67585;SDS011;55785;47.946;20.540;2024-03-08T09:53:01;8.93;;;3.93;;
67585;SDS011;55785;47.946;20.540;2024-03-08T09:55:27;8.00;;;3.50;;
67585;SDS011;55785;47.946;20.540;2024-03-08T09:57:52;7.10;;;3.63;;
67585;SDS011;55785;47.946;20.540;2024-03-08T10:00:19;6.37;;;3.37;;
67585;SDS011;55785;47.946;20.540;2024-03-08T10:02:45;12.47;;;4.10;;
67585;SDS011;55785;47.946;20.540;2024-03-08T10:05:11;8.40;;;3.43;;
67585;SDS011;55785;47.946;20.540;2024-03-08T10:07:37;6.43;;;3.63;;
67585;SDS011;55785;47.946;20.540;2024-03-08T10:10:02;9.83;;;4.90;;
67585;SDS011;55785;47.946;20.540;2024-03-08T10:12:28;7.33;;;4.50;;
67585;SDS011;55785;47.946;20.540;2024-03-08T10:15:00;6.37;;;3.67;;
67585;SDS011;55785;47.946;20.540;2024-03-08T10:17:25;8.17;;;4.03;;
67585;SDS011;55785;47.946;20.540;2024-03-08T10:19:51;9.17;;;4.27;;
67585;SDS011;55785;47.946;20.540;2024-03-08T10:22:16;9.63;;;4.87;;
67585;SDS011;55785;47.946;20.540;2024-03-08T10:24:44;6.17;;;3.77;;
67585;SDS011;55785;47.946;20.540;2024-03-08T10:27:10;9.47;;;4.60;;
67585;SDS011;55785;47.946;20.540;2024-03-08T10:29:36;12.90;;;4.60;;
67585;SDS011;55785;47.946;20.540;2024-03-08T10:32:01;8.23;;;4.03;;
67585;SDS011;55785;47.946;20.540;2024-03-08T10:34:27;8.33;;;4.00;;
67585;SDS011;55785;47.946;20.540;2024-03-08T10:36:52;8.18;;;4.80;;
67585;SDS011;55785;47.946;20.540;2024-03-08T10:41:49;6.88;;;3.97;;
67585;SDS011;55785;47.946;20.540;2024-03-08T10:47:03;11.67;;;4.80;;
67585;SDS011;55785;47.946;20.540;2024-03-08T10:49:51;5.03;;;2.87;;
67585;SDS011;55785;47.946;20.540;2024-03-08T10:52:20;6.97;;;3.97;;
67585;SDS011;55785;47.946;20.540;2024-03-08T10:54:46;10.10;;;3.80;;
67585;SDS011;55785;47.946;20.540;2024-03-08T10:57:13;6.97;;;3.93;;
67585;SDS011;55785;47.946;20.540;2024-03-08T10:59:39;8.20;;;3.93;;
67585;SDS011;55785;47.946;20.540;2024-03-08T11:02:05;11.10;;;5.17;;
67585;SDS011;55785;47.946;20.540;2024-03-08T11:04:31;10.00;;;4.83;;
67585;SDS011;55785;47.946;20.540;2024-03-08T11:07:00;7.80;;;3.83;;
67585;SDS011;55785;47.946;20.540;2024-03-08T11:09:33;7.37;;;3.90;;
67585;SDS011;55785;47.946;20.540;2024-03-08T11:14:46;9.13;;;4.78;;
67585;SDS011;55785;47.946;20.540;2024-03-08T11:17:13;11.37;;;5.20;;
67585;SDS011;55785;47.946;20.540;2024-03-08T11:19:38;9.03;;;5.23;;
67585;SDS011;55785;47.946;20.540;2024-03-08T11:22:19;9.80;;;4.83;;
67585;SDS011;55785;47.946;20.540;2024-03-08T11:24:46;10.73;;;5.13;;
67585;SDS011;55785;47.946;20.540;2024-03-08T11:27:12;7.20;;;4.07;;
67585;SDS011;55785;47.946;20.540;2024-03-08T11:29:37;10.00;;;4.75;;
67585;SDS011;55785;47.946;20.540;2024-03-08T11:32:14;8.43;;;5.17;;
67585;SDS011;55785;47.946;20.540;2024-03-08T11:34:41;10.20;;;5.00;;
67585;SDS011;55785;47.946;20.540;2024-03-08T11:37:14;9.25;;;4.60;;
67585;SDS011;55785;47.946;20.540;2024-03-08T11:39:47;10.10;;;5.05;;
67585;SDS011;55785;47.946;20.540;2024-03-08T11:42:13;12.57;;;6.43;;
67585;SDS011;55785;47.946;20.540;2024-03-08T11:44:39;9.97;;;5.40;;
67585;SDS011;55785;47.946;20.540;2024-03-08T11:47:08;10.73;;;5.50;;
67585;SDS011;55785;47.946;20.540;2024-03-08T11:49:34;13.33;;;5.93;;
67585;SDS011;55785;47.946;20.540;2024-03-08T11:52:00;10.77;;;5.30;;
67585;SDS011;55785;47.946;20.540;2024-03-08T11:54:25;11.32;;;5.20;;
67585;SDS011;55785;47.946;20.540;2024-03-08T11:56:51;14.90;;;6.60;;
67585;SDS011;55785;47.946;20.540;2024-03-08T11:59:17;13.17;;;6.33;;
67585;SDS011;55785;47.946;20.540;2024-03-08T12:01:42;10.48;;;4.97;;
67585;SDS011;55785;47.946;20.540;2024-03-08T12:04:11;11.73;;;5.60;;
67585;SDS011;55785;47.946;20.540;2024-03-08T12:06:37;11.37;;;5.20;;
67585;SDS011;55785;47.946;20.540;2024-03-08T12:09:04;9.20;;;5.00;;
67585;SDS011;55785;47.946;20.540;2024-03-08T12:11:29;7.70;;;4.30;;
67585;SDS011;55785;47.946;20.540;2024-03-08T12:13:54;10.30;;;5.13;;
67585;SDS011;55785;47.946;20.540;2024-03-08T12:16:20;12.70;;;5.33;;
67585;SDS011;55785;47.946;20.540;2024-03-08T12:18:45;10.73;;;5.33;;
67585;SDS011;55785;47.946;20.540;2024-03-08T12:21:11;11.93;;;4.93;;
67585;SDS011;55785;47.946;20.540;2024-03-08T12:23:37;8.73;;;4.73;;
67585;SDS011;55785;47.946;20.540;2024-03-08T12:26:11;14.23;;;6.87;;
67585;SDS011;55785;47.946;20.540;2024-03-08T12:28:40;12.02;;;5.57;;
67585;SDS011;55785;47.946;20.540;2024-03-08T12:31:09;9.50;;;5.17;;
67585;SDS011;55785;47.946;20.540;2024-03-08T12:34:00;11.65;;;5.53;;
67585;SDS011;55785;47.946;20.540;2024-03-08T12:36:22;11.18;;;4.68;;
67585;SDS011;55785;47.946;20.540;2024-03-08T12:38:47;15.82;;;4.97;;
67585;SDS011;55785;47.946;20.540;2024-03-08T12:41:13;10.52;;;5.40;;
67585;SDS011;55785;47.946;20.540;2024-03-08T12:43:43;11.47;;;5.60;;
67585;SDS011;55785;47.946;20.540;2024-03-08T12:46:08;10.52;;;5.00;;
67585;SDS011;55785;47.946;20.540;2024-03-08T12:48:37;11.13;;;6.13;;
67585;SDS011;55785;47.946;20.540;2024-03-08T12:51:02;10.85;;;5.20;;
67585;SDS011;55785;47.946;20.540;2024-03-08T12:53:28;9.63;;;4.82;;
67585;SDS011;55785;47.946;20.540;2024-03-08T12:55:53;9.45;;;4.88;;
67585;SDS011;55785;47.946;20.540;2024-03-08T12:58:18;11.33;;;5.10;;
67585;SDS011;55785;47.946;20.540;2024-03-08T13:00:44;9.60;;;4.90;;
67585;SDS011;55785;47.946;20.540;2024-03-08T13:03:09;8.33;;;5.07;;
67585;SDS011;55785;47.946;20.540;2024-03-08T13:05:35;10.50;;;5.37;;
67585;SDS011;55785;47.946;20.540;2024-03-08T13:08:00;11.60;;;5.93;;
67585;SDS011;55785;47.946;20.540;2024-03-08T13:10:25;14.32;;;5.50;;
67585;SDS011;55785;47.946;20.540;2024-03-08T13:12:51;10.90;;;4.60;;
67585;SDS011;55785;47.946;20.540;2024-03-08T13:15:16;12.63;;;5.10;;
67585;SDS011;55785;47.946;20.540;2024-03-08T13:17:41;12.50;;;5.43;;
67585;SDS011;55785;47.946;20.540;2024-03-08T13:20:07;14.13;;;5.00;;
67585;SDS011;55785;47.946;20.540;2024-03-08T13:22:33;10.68;;;5.78;;
67585;SDS011;55785;47.946;20.540;2024-03-08T13:24:58;10.70;;;5.43;;
67585;SDS011;55785;47.946;20.540;2024-03-08T13:27:24;9.77;;;5.07;;
67585;SDS011;55785;47.946;20.540;2024-03-08T13:29:49;10.93;;;5.43;;
67585;SDS011;55785;47.946;20.540;2024-03-08T13:32:15;7.70;;;4.53;;
67585;SDS011;55785;47.946;20.540;2024-03-08T13:34:41;8.10;;;4.80;;
67585;SDS011;55785;47.946;20.540;2024-03-08T13:37:10;11.33;;;5.40;;
67585;SDS011;55785;47.946;20.540;2024-03-08T13:39:35;12.90;;;5.67;;
67585;SDS011;55785;47.946;20.540;2024-03-08T13:42:01;7.63;;;4.47;;
67585;SDS011;55785;47.946;20.540;2024-03-08T13:44:26;12.20;;;6.40;;
67585;SDS011;55785;47.946;20.540;2024-03-08T13:46:52;11.30;;;5.47;;
67585;SDS011;55785;47.946;20.540;2024-03-08T13:49:17;10.80;;;5.10;;
67585;SDS011;55785;47.946;20.540;2024-03-08T13:51:42;9.35;;;4.95;;
67585;SDS011;55785;47.946;20.540;2024-03-08T13:54:08;9.50;;;4.93;;
67585;SDS011;55785;47.946;20.540;2024-03-08T13:56:33;12.00;;;5.57;;
67585;SDS011;55785;47.946;20.540;2024-03-08T13:58:59;11.27;;;5.00;;
67585;SDS011;55785;47.946;20.540;2024-03-08T14:01:24;8.07;;;4.80;;
67585;SDS011;55785;47.946;20.540;2024-03-08T14:03:49;11.90;;;6.05;;
67585;SDS011;55785;47.946;20.540;2024-03-08T14:06:15;9.98;;;4.53;;
67585;SDS011;55785;47.946;20.540;2024-03-08T14:08:40;10.70;;;5.97;;
67585;SDS011;55785;47.946;20.540;2024-03-08T14:11:05;11.25;;;6.25;;
67585;SDS011;55785;47.946;20.540;2024-03-08T14:13:31;11.60;;;5.67;;
67585;SDS011;55785;47.946;20.540;2024-03-08T14:15:56;10.18;;;4.55;;
67585;SDS011;55785;47.946;20.540;2024-03-08T14:18:22;11.60;;;4.80;;
67585;SDS011;55785;47.946;20.540;2024-03-08T14:20:47;9.10;;;4.50;;
67585;SDS011;55785;47.946;20.540;2024-03-08T14:23:12;15.85;;;6.70;;
67585;SDS011;55785;47.946;20.540;2024-03-08T14:25:38;11.47;;;5.40;;
67585;SDS011;55785;47.946;20.540;2024-03-08T14:28:03;14.32;;;6.40;;
67585;SDS011;55785;47.946;20.540;2024-03-08T14:30:29;13.10;;;5.80;;